Falken — SBCH — position and weather

sailwx.info

Track history (hours):
 
Tides and Currents Weather Stations Pressure Air Temp Water Temp Dewpoint Dewpoint Depression Visibility Wind Speed Wind Dir Waves Ship Positions

Falken (Sweden)

Last reported at 2017-Feb-22 16:31 UTC. Time now 2017-Feb-22 17:26 UTC.
Position N 28°08' W 015°25'.

Length 40 m; draft 4.2 m.

Type: Sailing vessel. MMSI: 265070000.

Date/timePositionNaut miles runAvg speedWind from/ knotsBaromVisibWave heightAir tempDewpointWater temp
2017-Feb-22 16:31N 28°08' W 015°25'0 0.0
2017-Feb-22 15:31N 28°08' W 015°25'0 0.0
2017-Feb-22 14:31N 28°08' W 015°25'0 0.0
2017-Feb-22 13:31N 28°08' W 015°25'0 0.0
2017-Feb-22 12:31N 28°08' W 015°25'0 0.0
2017-Feb-22 11:31N 28°08' W 015°25'0 0.0
2017-Feb-22 10:33N 28°08' W 015°26'0 0.0
2017-Feb-22 09:33N 28°08' W 015°26'0 0.3
2017-Feb-22 08:31N 28°07' W 015°25'0 0.1
2017-Feb-22 07:27N 28°08' W 015°25'0 0.0
2017-Feb-22 06:27N 28°08' W 015°25'0 0.0
2017-Feb-22 05:30N 28°08' W 015°25'0 0.0
2017-Feb-22 04:30N 28°08' W 015°25'0 0.0
2017-Feb-22 03:30N 28°08' W 015°25'0 0.0
2017-Feb-22 02:33N 28°08' W 015°25'0 0.0
2017-Feb-22 01:33N 28°08' W 015°25'0 0.0
2017-Feb-22 00:30N 28°08' W 015°25'0 0.0
2017-Feb-21 23:33N 28°08' W 015°25'0 0.0
2017-Feb-21 22:18N 28°08' W 015°25'0 0.0
2017-Feb-21 21:33N 28°08' W 015°25'0 0.0
2017-Feb-21 20:33N 28°08' W 015°25'0 0.0
2017-Feb-21 19:24N 28°08' W 015°25'0 0.0
2017-Feb-21 18:27N 28°08' W 015°25'0 0.0
2017-Feb-21 17:27N 28°08' W 015°25'0 0.0
2017-Feb-21 16:27N 28°08' W 015°25'0 0.0
2017-Feb-21 15:30N 28°08' W 015°25'0 0.0
2017-Feb-21 14:30N 28°08' W 015°25'0 0.0
2017-Feb-21 13:30N 28°08' W 015°25'0 0.0
2017-Feb-21 12:33N 28°08' W 015°25'0 0.0
2017-Feb-21 11:33N 28°08' W 015°25'0 0.0
2017-Feb-21 10:33N 28°08' W 015°25'0 0.0
2017-Feb-21 09:33N 28°08' W 015°25'0 0.0
2017-Feb-21 08:33N 28°08' W 015°25'0 0.0
2017-Feb-21 07:33N 28°08' W 015°25'0 0.0
2017-Feb-21 06:33N 28°08' W 015°25'0 0.0
2017-Feb-21 05:24N 28°08' W 015°25'1 0.8
2017-Feb-21 04:33N 28°07' W 015°25'4 4.5
2017-Feb-21 03:34N 28°09' W 015°20'4 3.6
2017-Feb-21 02:34N 28°12' W 015°23'7 6.7
2017-Feb-21 01:34N 28°14' W 015°30'7 7.2
2017-Feb-21 00:33N 28°15' W 015°38'8 7.6
2017-Feb-20 23:34N 28°17' W 015°47'7 7.5
2017-Feb-20 22:34N 28°18' W 015°55'7 7.1
2017-Feb-20 21:34N 28°21' W 016°02'8 7.5
2017-Feb-20 20:28N 28°25' W 016°11'  
2017-Feb-16 21:23N 27°47' W 016°13'49 3.8
2017-Feb-16 08:33N 27°41' W 015°18'4 3.8
2017-Feb-16 07:34N 27°45' W 015°19'3 2.7
2017-Feb-16 06:34N 27°47' W 015°19'2 2.4
2017-Feb-16 05:34N 27°49' W 015°20'3 3.3
2017-Feb-16 04:33N 27°53' W 015°19'4 4.4
2017-Feb-16 03:33N 27°56' W 015°16'3 3.3
2017-Feb-16 02:33N 27°59' W 015°14'1 1.0
2017-Feb-16 01:33N 27°59' W 015°15'2 2.0
2017-Feb-16 00:33N 27°58' W 015°17'1 0.5
2017-Feb-15 23:33N 27°59' W 015°17'1 1.3
2017-Feb-15 22:33N 27°59' W 015°16'1 1.5
2017-Feb-15 21:34N 28°00' W 015°15'3 2.7
2017-Feb-15 20:34N 28°03' W 015°14'3 2.6
2017-Feb-15 19:34N 28°06' W 015°14'2 1.7
2017-Feb-15 18:34N 28°07' W 015°14'4 3.5
2017-Feb-15 17:34N 28°07' W 015°18'1 1.2
2017-Feb-15 16:34N 28°06' W 015°20'1 0.9
2017-Feb-15 15:34N 28°06' W 015°21'3 3.2
2017-Feb-15 14:33N 28°07' W 015°24'1 1.1
2017-Feb-15 13:29N 28°08' W 015°25'0 0.0
2017-Feb-15 12:29N 28°08' W 015°25'0 0.0
2017-Feb-15 11:29N 28°08' W 015°25'0 0.0
2017-Feb-15 10:32N 28°08' W 015°25'0 0.0
2017-Feb-15 09:32N 28°08' W 015°25'0 0.0
2017-Feb-15 08:32N 28°08' W 015°25'0 0.0
2017-Feb-15 07:29N 28°08' W 015°25'0 0.0
2017-Feb-15 06:32N 28°08' W 015°25'0 0.0
2017-Feb-15 05:32N 28°08' W 015°25'0 0.0
2017-Feb-15 04:32N 28°08' W 015°25'0 0.0
2017-Feb-15 03:23N 28°08' W 015°25'0 0.0
2017-Feb-15 02:26N 28°08' W 015°25'0 0.0
2017-Feb-15 01:26N 28°08' W 015°25'0 0.0
2017-Feb-15 00:26N 28°08' W 015°25'0 0.0
2017-Feb-14 23:29N 28°08' W 015°25'0 0.0
2017-Feb-14 22:29N 28°08' W 015°25'0 0.0
2017-Feb-14 21:29N 28°08' W 015°25'0 0.0
2017-Feb-14 20:32N 28°08' W 015°25'0 0.0
2017-Feb-14 19:32N 28°08' W 015°25'0 0.0
2017-Feb-14 18:32N 28°08' W 015°25'0 0.0
2017-Feb-14 17:32N 28°08' W 015°25'0 0.0
2017-Feb-14 16:32N 28°08' W 015°25'0 0.1
2017-Feb-14 15:29N 28°08' W 015°25'0 0.0
2017-Feb-14 14:14N 28°08' W 015°25'0 0.0
2017-Feb-14 13:32N 28°08' W 015°25'0 0.0
2017-Feb-14 12:32N 28°08' W 015°25'0 0.0
2017-Feb-14 11:32N 28°08' W 015°25'0 0.0
2017-Feb-14 10:32N 28°08' W 015°25'0 0.0
2017-Feb-14 09:32N 28°08' W 015°25'0 0.0
2017-Feb-14 08:32N 28°08' W 015°25'0 0.0
2017-Feb-14 07:32N 28°08' W 015°25'0 0.0
2017-Feb-14 06:32N 28°08' W 015°25'0 0.0
2017-Feb-14 05:23N 28°08' W 015°25'0 0.0
2017-Feb-14 04:26N 28°08' W 015°25'0 0.0
2017-Feb-14 03:26N 28°08' W 015°25'0 0.0
2017-Feb-14 02:29N 28°08' W 015°25'0 0.0
2017-Feb-14 01:29N 28°08' W 015°25'0 0.0
2017-Feb-14 00:29N 28°08' W 015°25'0 0.0
2017-Feb-13 23:29N 28°08' W 015°25'0 0.0
2017-Feb-13 22:32N 28°08' W 015°25'0 0.0
2017-Feb-13 21:32N 28°08' W 015°25'0 0.0
2017-Feb-13 20:32N 28°08' W 015°25'0 0.0
2017-Feb-13 19:32N 28°08' W 015°25'0 0.0
2017-Feb-13 18:32N 28°08' W 015°25'0 0.0
2017-Feb-13 17:32N 28°08' W 015°25'0 0.0
2017-Feb-13 16:23N 28°08' W 015°25'0 0.0
2017-Feb-13 15:23N 28°08' W 015°25'0 0.0
2017-Feb-13 14:26N 28°08' W 015°25'0 0.0
2017-Feb-13 13:26N 28°08' W 015°25'0 0.0
2017-Feb-13 12:26N 28°08' W 015°25'0 0.0
2017-Feb-13 11:29N 28°08' W 015°25'0 0.0
2017-Feb-13 10:26N 28°08' W 015°25'0 0.0
2017-Feb-13 09:29N 28°08' W 015°25'0 0.0
2017-Feb-13 08:32N 28°08' W 015°25'0 0.0
2017-Feb-13 07:29N 28°08' W 015°25'0 0.0
2017-Feb-13 06:32N 28°08' W 015°25'0 0.0
2017-Feb-13 05:32N 28°08' W 015°25'0 0.0
2017-Feb-13 04:32N 28°08' W 015°25'0 0.0
2017-Feb-13 03:32N 28°08' W 015°25'0 0.0
2017-Feb-13 02:23N 28°08' W 015°25'0 0.0
2017-Feb-13 01:23N 28°08' W 015°25'0 0.0
2017-Feb-13 00:26N 28°08' W 015°25'0 0.0
2017-Feb-12 23:26N 28°08' W 015°25'0 0.0
2017-Feb-12 22:26N 28°08' W 015°25'0 0.0
2017-Feb-12 21:29N 28°08' W 015°25'0 0.0
2017-Feb-12 20:29N 28°08' W 015°25'0 0.0
2017-Feb-12 19:32N 28°08' W 015°25'0 0.0
2017-Feb-12 18:32N 28°08' W 015°25'0 0.0
2017-Feb-12 17:32N 28°08' W 015°25'0 0.0
2017-Feb-12 16:32N 28°08' W 015°25'  
Track history (hours):
 
Tides and Currents Weather Stations Pressure Air Temp Water Temp Dewpoint Dewpoint Depression Visibility Wind Speed Wind Dir Waves Ship Positions

Falken (Sweden)

Last reported at 2017-Feb-22 16:31 UTC. Time now 2017-Feb-22 17:26 UTC.
Position N 28°08' W 015°25'.

Length 40 m; draft 4.2 m.

Type: Sailing vessel. MMSI: 265070000.

Date/timePositionNaut miles runAvg speedWind from/ knotsBaromVisibWave heightAir tempDewpointWater temp
2017-Feb-22 16:31N 28°08' W 015°25'0 0.0
2017-Feb-22 15:31N 28°08' W 015°25'0 0.0
2017-Feb-22 14:31N 28°08' W 015°25'0 0.0
2017-Feb-22 13:31N 28°08' W 015°25'0 0.0
2017-Feb-22 12:31N 28°08' W 015°25'0 0.0
2017-Feb-22 11:31N 28°08' W 015°25'0 0.0
2017-Feb-22 10:33N 28°08' W 015°26'0 0.0
2017-Feb-22 09:33N 28°08' W 015°26'0 0.3
2017-Feb-22 08:31N 28°07' W 015°25'0 0.1
2017-Feb-22 07:27N 28°08' W 015°25'0 0.0
2017-Feb-22 06:27N 28°08' W 015°25'0 0.0
2017-Feb-22 05:30N 28°08' W 015°25'0 0.0
2017-Feb-22 04:30N 28°08' W 015°25'0 0.0
2017-Feb-22 03:30N 28°08' W 015°25'0 0.0
2017-Feb-22 02:33N 28°08' W 015°25'0 0.0
2017-Feb-22 01:33N 28°08' W 015°25'0 0.0
2017-Feb-22 00:30N 28°08' W 015°25'0 0.0
2017-Feb-21 23:33N 28°08' W 015°25'0 0.0
2017-Feb-21 22:18N 28°08' W 015°25'0 0.0
2017-Feb-21 21:33N 28°08' W 015°25'0 0.0
2017-Feb-21 20:33N 28°08' W 015°25'0 0.0
2017-Feb-21 19:24N 28°08' W 015°25'0 0.0
2017-Feb-21 18:27N 28°08' W 015°25'0 0.0
2017-Feb-21 17:27N 28°08' W 015°25'0 0.0
2017-Feb-21 16:27N 28°08' W 015°25'0 0.0
2017-Feb-21 15:30N 28°08' W 015°25'0 0.0
2017-Feb-21 14:30N 28°08' W 015°25'0 0.0
2017-Feb-21 13:30N 28°08' W 015°25'0 0.0
2017-Feb-21 12:33N 28°08' W 015°25'0 0.0
2017-Feb-21 11:33N 28°08' W 015°25'0 0.0
2017-Feb-21 10:33N 28°08' W 015°25'0 0.0
2017-Feb-21 09:33N 28°08' W 015°25'0 0.0
2017-Feb-21 08:33N 28°08' W 015°25'0 0.0
2017-Feb-21 07:33N 28°08' W 015°25'0 0.0
2017-Feb-21 06:33N 28°08' W 015°25'0 0.0
2017-Feb-21 05:24N 28°08' W 015°25'1 0.8
2017-Feb-21 04:33N 28°07' W 015°25'4 4.5
2017-Feb-21 03:34N 28°09' W 015°20'4 3.6
2017-Feb-21 02:34N 28°12' W 015°23'7 6.7
2017-Feb-21 01:34N 28°14' W 015°30'7 7.2
2017-Feb-21 00:33N 28°15' W 015°38'8 7.6
2017-Feb-20 23:34N 28°17' W 015°47'7 7.5
2017-Feb-20 22:34N 28°18' W 015°55'7 7.1
2017-Feb-20 21:34N 28°21' W 016°02'8 7.5
2017-Feb-20 20:28N 28°25' W 016°11'  
2017-Feb-16 21:23N 27°47' W 016°13'49 3.8
2017-Feb-16 08:33N 27°41' W 015°18'4 3.8
2017-Feb-16 07:34N 27°45' W 015°19'3 2.7
2017-Feb-16 06:34N 27°47' W 015°19'2 2.4
2017-Feb-16 05:34N 27°49' W 015°20'3 3.3
2017-Feb-16 04:33N 27°53' W 015°19'4 4.4
2017-Feb-16 03:33N 27°56' W 015°16'3 3.3
2017-Feb-16 02:33N 27°59' W 015°14'1 1.0
2017-Feb-16 01:33N 27°59' W 015°15'2 2.0
2017-Feb-16 00:33N 27°58' W 015°17'1 0.5
2017-Feb-15 23:33N 27°59' W 015°17'1 1.3
2017-Feb-15 22:33N 27°59' W 015°16'1 1.5
2017-Feb-15 21:34N 28°00' W 015°15'3 2.7
2017-Feb-15 20:34N 28°03' W 015°14'3 2.6
2017-Feb-15 19:34N 28°06' W 015°14'2 1.7
2017-Feb-15 18:34N 28°07' W 015°14'4 3.5
2017-Feb-15 17:34N 28°07' W 015°18'1 1.2
2017-Feb-15 16:34N 28°06' W 015°20'1 0.9
2017-Feb-15 15:34N 28°06' W 015°21'3 3.2
2017-Feb-15 14:33N 28°07' W 015°24'1 1.1
2017-Feb-15 13:29N 28°08' W 015°25'0 0.0
2017-Feb-15 12:29N 28°08' W 015°25'0 0.0
2017-Feb-15 11:29N 28°08' W 015°25'0 0.0
2017-Feb-15 10:32N 28°08' W 015°25'0 0.0
2017-Feb-15 09:32N 28°08' W 015°25'0 0.0
2017-Feb-15 08:32N 28°08' W 015°25'0 0.0
2017-Feb-15 07:29N 28°08' W 015°25'0 0.0
2017-Feb-15 06:32N 28°08' W 015°25'0 0.0
2017-Feb-15 05:32N 28°08' W 015°25'0 0.0
2017-Feb-15 04:32N 28°08' W 015°25'0 0.0
2017-Feb-15 03:23N 28°08' W 015°25'0 0.0
2017-Feb-15 02:26N 28°08' W 015°25'0 0.0
2017-Feb-15 01:26N 28°08' W 015°25'0 0.0
2017-Feb-15 00:26N 28°08' W 015°25'0 0.0
2017-Feb-14 23:29N 28°08' W 015°25'0 0.0
2017-Feb-14 22:29N 28°08' W 015°25'0 0.0
2017-Feb-14 21:29N 28°08' W 015°25'0 0.0
2017-Feb-14 20:32N 28°08' W 015°25'0 0.0
2017-Feb-14 19:32N 28°08' W 015°25'0 0.0
2017-Feb-14 18:32N 28°08' W 015°25'0 0.0
2017-Feb-14 17:32N 28°08' W 015°25'0 0.0
2017-Feb-14 16:32N 28°08' W 015°25'0 0.1
2017-Feb-14 15:29N 28°08' W 015°25'0 0.0
2017-Feb-14 14:14N 28°08' W 015°25'0 0.0
2017-Feb-14 13:32N 28°08' W 015°25'0 0.0
2017-Feb-14 12:32N 28°08' W 015°25'0 0.0
2017-Feb-14 11:32N 28°08' W 015°25'0 0.0
2017-Feb-14 10:32N 28°08' W 015°25'0 0.0
2017-Feb-14 09:32N 28°08' W 015°25'0 0.0
2017-Feb-14 08:32N 28°08' W 015°25'0 0.0
2017-Feb-14 07:32N 28°08' W 015°25'0 0.0
2017-Feb-14 06:32N 28°08' W 015°25'0 0.0
2017-Feb-14 05:23N 28°08' W 015°25'0 0.0
2017-Feb-14 04:26N 28°08' W 015°25'0 0.0
2017-Feb-14 03:26N 28°08' W 015°25'0 0.0
2017-Feb-14 02:29N 28°08' W 015°25'0 0.0
2017-Feb-14 01:29N 28°08' W 015°25'0 0.0
2017-Feb-14 00:29N 28°08' W 015°25'0 0.0
2017-Feb-13 23:29N 28°08' W 015°25'0 0.0
2017-Feb-13 22:32N 28°08' W 015°25'0 0.0
2017-Feb-13 21:32N 28°08' W 015°25'0 0.0
2017-Feb-13 20:32N 28°08' W 015°25'0 0.0
2017-Feb-13 19:32N 28°08' W 015°25'0 0.0
2017-Feb-13 18:32N 28°08' W 015°25'0 0.0
2017-Feb-13 17:32N 28°08' W 015°25'0 0.0
2017-Feb-13 16:23N 28°08' W 015°25'0 0.0
2017-Feb-13 15:23N 28°08' W 015°25'0 0.0
2017-Feb-13 14:26N 28°08' W 015°25'0 0.0
2017-Feb-13 13:26N 28°08' W 015°25'0 0.0
2017-Feb-13 12:26N 28°08' W 015°25'0 0.0
2017-Feb-13 11:29N 28°08' W 015°25'0 0.0
2017-Feb-13 10:26N 28°08' W 015°25'0 0.0
2017-Feb-13 09:29N 28°08' W 015°25'0 0.0
2017-Feb-13 08:32N 28°08' W 015°25'0 0.0
2017-Feb-13 07:29N 28°08' W 015°25'0 0.0
2017-Feb-13 06:32N 28°08' W 015°25'0 0.0
2017-Feb-13 05:32N 28°08' W 015°25'0 0.0
2017-Feb-13 04:32N 28°08' W 015°25'0 0.0
2017-Feb-13 03:32N 28°08' W 015°25'0 0.0
2017-Feb-13 02:23N 28°08' W 015°25'0 0.0
2017-Feb-13 01:23N 28°08' W 015°25'0 0.0
2017-Feb-13 00:26N 28°08' W 015°25'0 0.0
2017-Feb-12 23:26N 28°08' W 015°25'0 0.0
2017-Feb-12 22:26N 28°08' W 015°25'0 0.0
2017-Feb-12 21:29N 28°08' W 015°25'0 0.0
2017-Feb-12 20:29N 28°08' W 015°25'0 0.0
2017-Feb-12 19:32N 28°08' W 015°25'0 0.0
2017-Feb-12 18:32N 28°08' W 015°25'0 0.0
2017-Feb-12 17:32N 28°08' W 015°25'0 0.0
2017-Feb-12 16:32N 28°08' W 015°25'  

Dump ship's entire track history